Time;durP1;ratioP1;P1;durP2;ratioP2;P2;SDS_P1;SDS_P2;PMS_P1;PMS_P2;Temp;Humidity;BMP_temperature;BMP_pressure;BME280_temperature;BME280_humidity;BME280_pressure;Samples;Min_cycle;Max_cycle;Signal;HPM_P1;HPM_P2
2022/12/30 05:00:46;;;;;;;5.55;1.23;;;7.40;99.90;;;;;;5743173;23;20039;-65
2022/12/30 05:03:12;;;;;;;3.47;1.00;;;7.40;99.90;;;;;;4974332;28;20446;-66
2022/12/30 05:05:37;;;;;;;3.43;1.03;;;7.30;99.90;;;;;;4971485;28;20102;-65
2022/12/30 05:08:03;;;;;;;1.20;0.80;;;7.50;99.90;;;;;;4974399;28;20109;-66
2022/12/30 05:10:29;;;;;;;5.97;1.10;;;7.50;99.90;;;;;;4974222;28;20031;-66
2022/12/30 05:12:54;;;;;;;3.37;1.20;;;7.50;99.90;;;;;;4974671;28;20031;-66
2022/12/30 05:15:20;;;;;;;3.97;0.93;;;7.50;99.90;;;;;;4974450;28;20023;-66
2022/12/30 05:17:45;;;;;;;4.13;0.90;;;7.50;99.90;;;;;;4975218;28;20035;-66
2022/12/30 05:20:11;;;;;;;3.03;0.90;;;7.50;99.90;;;;;;4974029;28;20148;-65
2022/12/30 05:22:36;;;;;;;6.67;1.47;;;7.60;99.90;;;;;;4974110;28;20055;-65
2022/12/30 05:27:46;;;;;;;4.80;1.15;;;7.60;99.90;;;;;;4975360;28;20545;-64
2022/12/30 05:30:12;;;;;;;3.20;1.67;;;7.50;99.90;;;;;;4977958;28;20027;-66
2022/12/30 05:32:37;;;;;;;4.37;0.93;;;7.50;99.90;;;;;;4978193;28;20058;-66
2022/12/30 05:35:03;;;;;;;2.30;0.90;;;7.40;99.90;;;;;;4977943;28;20162;-66
2022/12/30 05:37:28;;;;;;;5.00;1.02;;;7.40;99.90;;;;;;4977706;28;20038;-66
2022/12/30 05:39:54;;;;;;;3.47;0.80;;;7.30;99.90;;;;;;4978515;28;20034;-65
2022/12/30 05:42:20;;;;;;;1.57;0.93;;;7.30;99.90;;;;;;4980439;28;20027;-65
2022/12/30 05:44:45;;;;;;;1.97;1.30;;;7.30;99.90;;;;;;4980325;28;20030;-65
2022/12/30 05:47:11;;;;;;;4.93;1.90;;;7.20;99.90;;;;;;4979835;28;20085;-66
2022/12/30 05:49:36;;;;;;;3.47;0.97;;;7.20;99.90;;;;;;4976543;28;20035;-65
2022/12/30 05:52:02;;;;;;;3.53;1.27;;;7.00;99.90;;;;;;4977443;28;20419;-66
2022/12/30 05:54:28;;;;;;;4.13;1.03;;;7.20;99.90;;;;;;4977524;28;20037;-66
2022/12/30 05:56:53;;;;;;;5.30;1.40;;;7.20;99.90;;;;;;4977606;28;20027;-66
2022/12/30 05:59:19;;;;;;;11.03;1.50;;;7.10;99.90;;;;;;4977335;28;20412;-66
2022/12/30 06:01:44;;;;;;;5.70;2.33;;;7.10;99.90;;;;;;4976610;28;20464;-66
2022/12/30 06:04:10;;;;;;;4.47;1.73;;;7.10;99.90;;;;;;4977737;28;20054;-64
2022/12/30 06:06:35;;;;;;;3.20;1.60;;;7.10;99.90;;;;;;4976398;28;20026;-66
2022/12/30 06:09:01;;;;;;;5.50;1.80;;;7.00;99.90;;;;;;4977226;28;20396;-68
2022/12/30 06:11:26;;;;;;;3.07;1.30;;;7.00;99.90;;;;;;4977475;28;20394;-67
2022/12/30 06:13:52;;;;;;;5.33;1.80;;;6.90;99.90;;;;;;4977513;28;20108;-66
2022/12/30 06:16:17;;;;;;;7.90;2.10;;;7.00;99.90;;;;;;4977228;28;20074;-66
2022/12/30 06:18:43;;;;;;;4.20;1.70;;;7.00;99.90;;;;;;4976467;28;20070;-66
2022/12/30 06:21:08;;;;;;;6.60;1.50;;;7.00;99.90;;;;;;4978586;28;20033;-65
2022/12/30 06:23:34;;;;;;;6.20;2.13;;;7.00;99.90;;;;;;4978902;28;20101;-66
2022/12/30 06:26:00;;;;;;;4.60;2.03;;;7.10;99.90;;;;;;4977244;28;20027;-66
2022/12/30 06:28:27;;;;;;;6.88;1.90;;;7.10;99.90;;;;;;4976833;28;20110;-66
2022/12/30 06:30:53;;;;;;;5.45;1.63;;;7.00;99.90;;;;;;4976767;28;20122;-66
2022/12/30 06:33:19;;;;;;;4.80;1.80;;;7.00;99.90;;;;;;4977066;28;20081;-66
2022/12/30 06:35:46;;;;;;;3.55;1.90;;;7.00;99.90;;;;;;4976568;28;20123;-65
2022/12/30 06:38:11;;;;;;;8.38;2.30;;;7.10;99.90;;;;;;4976877;28;20035;-65
2022/12/30 06:40:38;;;;;;;4.83;1.90;;;7.10;99.90;;;;;;4977348;28;20101;-69
2022/12/30 06:43:03;;;;;;;5.95;2.10;;;7.00;99.90;;;;;;4980768;28;20031;-67
2022/12/30 06:45:29;;;;;;;6.67;2.77;;;7.00;99.90;;;;;;4967037;28;20089;-67
2022/12/30 06:47:55;;;;;;;6.80;1.70;;;6.90;99.90;;;;;;4956096;29;20377;-66
2022/12/30 06:50:20;;;;;;;6.70;2.20;;;7.10;99.90;;;;;;4952141;28;20282;-65
2022/12/30 06:52:46;;;;;;;11.23;2.43;;;7.10;99.90;;;;;;4954317;29;20087;-65
2022/12/30 06:55:11;;;;;;;7.40;1.90;;;7.10;99.90;;;;;;4957379;28;20035;-65
2022/12/30 06:57:37;;;;;;;4.67;1.90;;;7.00;99.90;;;;;;4958401;28;20039;-66
2022/12/30 07:00:06;;;;;;;7.00;2.03;;;7.00;99.90;;;;;;4961876;28;20034;-65
2022/12/30 07:02:32;;;;;;;8.32;2.22;;;6.90;99.90;;;;;;4954967;28;20089;-65
2022/12/30 07:04:58;;;;;;;5.38;1.92;;;6.90;99.90;;;;;;4951813;29;20020;-65
2022/12/30 07:07:24;;;;;;;7.80;2.28;;;7.00;99.90;;;;;;4948222;29;20035;-65
2022/12/30 07:09:50;;;;;;;7.87;2.27;;;7.00;99.90;;;;;;4943746;28;20344;-65
2022/12/30 07:12:16;;;;;;;8.70;2.35;;;7.00;99.90;;;;;;4965946;28;20027;-65
2022/12/30 07:14:42;;;;;;;5.90;1.77;;;6.90;99.90;;;;;;4962177;28;20459;-66
2022/12/30 07:17:07;;;;;;;5.63;2.40;;;6.80;99.90;;;;;;4965536;28;20019;-66
2022/12/30 07:19:33;;;;;;;6.63;2.47;;;6.70;99.90;;;;;;4965686;28;20035;-65
2022/12/30 07:21:58;;;;;;;6.43;1.90;;;6.80;99.90;;;;;;4963034;28;20029;-66
2022/12/30 07:24:24;;;;;;;6.63;1.90;;;6.90;99.90;;;;;;4965858;28;20026;-66
2022/12/30 07:26:49;;;;;;;4.07;1.83;;;6.90;99.90;;;;;;4965890;28;20020;-66
2022/12/30 07:29:15;;;;;;;5.93;2.00;;;6.80;99.90;;;;;;4965801;28;20055;-66
2022/12/30 07:31:41;;;;;;;9.30;1.60;;;6.80;99.90;;;;;;4963453;28;20102;-65
2022/12/30 07:34:06;;;;;;;6.60;1.60;;;6.90;99.90;;;;;;4964738;28;20047;-65
2022/12/30 07:36:32;;;;;;;5.72;1.85;;;6.90;99.90;;;;;;4965573;28;20075;-65
2022/12/30 07:38:59;;;;;;;7.23;1.90;;;6.80;99.90;;;;;;4963944;28;20027;-66
2022/12/30 07:41:25;;;;;;;6.97;1.80;;;6.70;99.90;;;;;;4965449;28;20030;-67
2022/12/30 07:43:50;;;;;;;5.88;1.83;;;6.80;99.90;;;;;;4965475;28;20026;-66
2022/12/30 07:46:16;;;;;;;7.33;1.90;;;6.70;99.90;;;;;;4964523;28;20519;-65
2022/12/30 07:48:41;;;;;;;6.73;1.73;;;6.70;99.90;;;;;;4966458;28;20502;-66
2022/12/30 07:51:15;;;;;;;10.83;1.77;;;6.70;99.90;;;;;;4965420;28;20105;-64
2022/12/30 07:53:41;;;;;;;6.45;2.35;;;6.70;99.90;;;;;;4966957;28;20070;-66
2022/12/30 07:56:08;;;;;;;6.18;2.15;;;6.70;99.90;;;;;;4961109;28;20573;-68
2022/12/30 07:58:34;;;;;;;8.82;2.40;;;6.70;99.90;;;;;;4985318;28;20038;-66
2022/12/30 08:01:08;;;;;;;6.07;1.92;;;6.70;99.90;;;;;;4985279;28;20034;-68
2022/12/30 08:03:34;;;;;;;9.30;3.00;;;6.80;99.90;;;;;;4977819;28;20077;-67
2022/12/30 08:06:05;;;;;;;6.57;2.37;;;6.90;99.90;;;;;;4961597;28;20063;-68
2022/12/30 08:08:30;;;;;;;6.07;2.53;;;6.90;99.90;;;;;;4948884;29;20031;-68
2022/12/30 08:10:57;;;;;;;10.73;3.17;;;6.90;99.90;;;;;;4956400;28;20027;-66
2022/12/30 08:13:23;;;;;;;5.75;2.42;;;7.00;99.90;;;;;;4957430;28;20496;-67
2022/12/30 08:15:49;;;;;;;9.83;2.67;;;7.00;99.90;;;;;;4955865;28;20042;-67
2022/12/30 08:18:14;;;;;;;4.28;2.20;;;7.00;99.90;;;;;;4956019;28;20034;-67
2022/12/30 08:20:40;;;;;;;6.30;2.43;;;7.00;99.90;;;;;;4955393;28;20058;-67
2022/12/30 08:23:05;;;;;;;5.47;2.73;;;7.10;99.90;;;;;;4955946;28;20028;-68
2022/12/30 08:25:31;;;;;;;11.30;2.40;;;7.20;99.90;;;;;;4955901;29;20023;-66
2022/12/30 08:27:56;;;;;;;6.97;2.50;;;7.20;99.90;;;;;;4957442;28;20023;-67
2022/12/30 08:30:22;;;;;;;6.50;2.70;;;7.40;99.90;;;;;;4954765;28;20123;-68
2022/12/30 08:32:47;;;;;;;5.70;2.80;;;7.40;99.90;;;;;;4958734;29;20038;-68
2022/12/30 08:35:13;;;;;;;5.97;2.93;;;7.40;99.90;;;;;;4960202;29;20027;-72
2022/12/30 08:37:40;;;;;;;10.00;2.97;;;7.40;99.90;;;;;;4974919;28;20034;-72
2022/12/30 08:40:08;;;;;;;8.70;2.30;;;7.40;99.90;;;;;;4974628;28;20380;-68
2022/12/30 08:42:37;;;;;;;9.57;3.53;;;7.20;99.90;;;;;;4974483;28;20444;-66
2022/12/30 08:45:04;;;;;;;6.70;2.95;;;7.20;99.90;;;;;;4972997;28;20030;-70
2022/12/30 08:47:30;;;;;;;10.65;2.60;;;7.20;99.90;;;;;;4974462;28;20049;-69
2022/12/30 08:49:56;;;;;;;6.53;2.27;;;7.20;99.90;;;;;;4974401;28;20475;-67
2022/12/30 08:52:21;;;;;;;7.80;2.50;;;7.20;99.90;;;;;;4974984;28;20030;-66
2022/12/30 08:54:47;;;;;;;11.00;2.37;;;7.20;99.90;;;;;;4974993;28;20098;-69
2022/12/30 08:57:12;;;;;;;7.27;2.23;;;7.30;99.90;;;;;;4975216;28;20114;-70
2022/12/30 08:59:39;;;;;;;10.13;2.13;;;7.20;99.90;;;;;;4974908;28;20117;-70
2022/12/30 09:02:05;;;;;;;7.88;2.00;;;7.30;99.90;;;;;;4974749;28;20038;-69
2022/12/30 09:04:31;;;;;;;5.05;2.22;;;7.30;99.90;;;;;;4978022;28;20118;-66
2022/12/30 09:06:56;;;;;;;6.80;2.10;;;7.30;99.90;;;;;;4968536;28;20059;-67
2022/12/30 09:09:22;;;;;;;4.70;1.70;;;7.40;99.90;;;;;;4959125;28;20034;-68
2022/12/30 09:11:47;;;;;;;6.30;1.97;;;7.60;99.90;;;;;;4958894;28;20024;-68
2022/12/30 09:14:14;;;;;;;6.50;1.77;;;7.70;99.90;;;;;;4959064;28;20570;-70
2022/12/30 09:16:40;;;;;;;5.68;1.67;;;7.60;99.90;;;;;;4959746;28;20369;-69
2022/12/30 09:19:05;;;;;;;10.15;2.40;;;7.60;99.90;;;;;;4959086;28;20038;-68
2022/12/30 09:21:31;;;;;;;7.67;2.23;;;7.90;99.90;;;;;;4959201;28;20027;-70
2022/12/30 09:23:57;;;;;;;8.13;2.55;;;8.10;99.90;;;;;;4959155;29;20072;-69
2022/12/30 09:26:25;;;;;;;8.97;2.40;;;8.10;99.90;;;;;;4959065;28;20035;-70
2022/12/30 09:28:51;;;;;;;7.38;2.50;;;8.10;99.90;;;;;;4958793;28;20027;-69
2022/12/30 09:31:17;;;;;;;;;;;8.00;99.90;;;;;;4959623;28;20027;-70
2022/12/30 09:33:43;;;;;;;7.97;2.63;;;8.20;99.90;;;;;;4957437;28;20391;-71
2022/12/30 09:36:09;;;;;;;7.30;2.77;;;8.10;99.90;;;;;;4962440;28;20072;-68
2022/12/30 09:38:35;;;;;;;5.93;2.65;;;8.20;99.90;;;;;;4956195;28;20071;-68
2022/12/30 09:41:09;;;;;;;5.15;2.75;;;8.30;99.90;;;;;;4955689;28;20039;-67
2022/12/30 09:43:39;;;;;;;6.55;2.08;;;8.30;99.90;;;;;;4947566;29;20030;-70
2022/12/30 09:46:25;;;;;;;4.50;2.00;;;8.20;99.90;;;;;;4958194;28;20027;-69
2022/12/30 09:49:20;;;;;;;6.38;2.13;;;8.30;99.90;;;;;;4957333;29;20042;-70
2022/12/30 09:51:51;;;;;;;7.13;2.15;;;8.30;99.90;;;;;;4959089;28;20034;-72
2022/12/30 09:54:20;;;;;;;4.68;1.90;;;8.30;99.90;;;;;;4959737;28;20036;-70
2022/12/30 09:56:48;;;;;;;6.03;1.85;;;8.30;99.90;;;;;;4959208;28;20019;-70
2022/12/30 09:59:41;;;;;;;3.50;1.38;;;8.30;99.90;;;;;;4958598;28;20034;-70
2022/12/30 10:02:16;;;;;;;3.33;1.80;;;8.80;99.90;;;;;;4957113;28;20093;-68
2022/12/30 10:04:42;;;;;;;4.05;1.95;;;9.00;99.90;;;;;;4958249;28;20167;-69
2022/12/30 10:07:57;;;;;;;4.43;1.57;;;9.20;99.90;;;;;;4969059;28;20528;-68
2022/12/30 10:10:31;;;;;;;5.00;2.15;;;9.30;99.90;;;;;;4978197;28;20031;-68
2022/12/30 10:13:11;;;;;;;5.47;1.80;;;9.50;99.90;;;;;;4946174;28;20028;-66
2022/12/30 10:15:49;;;;;;;4.82;1.80;;;9.80;99.90;;;;;;4937347;29;20023;-67
2022/12/30 10:18:33;;;;;;;4.22;1.65;;;10.00;99.90;;;;;;4939232;29;20071;-66
2022/12/30 10:21:10;;;;;;;3.28;1.65;;;9.90;99.90;;;;;;4945863;29;20034;-67
2022/12/30 10:23:57;;;;;;;;;;;9.80;99.90;;;;;;4946192;29;20019;-67
2022/12/30 10:26:29;;;;;;;4.15;1.50;;;9.80;99.90;;;;;;4940787;29;20296;-67
2022/12/30 10:29:03;;;;;;;5.00;1.67;;;9.80;99.90;;;;;;4940014;29;20023;-68
2022/12/30 10:31:34;;;;;;;3.30;1.30;;;10.10;99.90;;;;;;4939596;29;20031;-66
2022/12/30 10:34:15;;;;;;;5.57;1.83;;;10.30;99.90;;;;;;4938485;29;20059;-65
2022/12/30 10:36:58;;;;;;;4.70;2.00;;;10.60;99.90;;;;;;4946978;28;20093;-65
2022/12/30 10:39:29;;;;;;;4.22;2.10;;;10.60;99.90;;;;;;4949332;28;20106;-65
2022/12/30 10:42:12;;;;;;;4.40;1.40;;;10.50;99.90;;;;;;4953405;28;20468;-65
2022/12/30 10:44:51;;;;;;;6.35;2.00;;;10.50;99.90;;;;;;4942461;29;20113;-65
2022/12/30 10:47:38;;;;;;;4.90;1.55;;;10.30;99.90;;;;;;4944274;29;20024;-65
2022/12/30 10:50:19;;;;;;;4.18;1.55;;;9.90;99.90;;;;;;4940558;28;20035;-65
2022/12/30 10:52:46;;;;;;;3.90;1.42;;;9.70;99.90;;;;;;4952147;29;20401;-65
2022/12/30 10:55:20;;;;;;;2.88;1.38;;;9.90;99.90;;;;;;4941319;29;20111;-67
2022/12/30 10:57:48;;;;;;;3.80;1.48;;;10.00;99.90;;;;;;4938198;29;20034;-65
2022/12/30 11:00:15;;;;;;;4.18;1.48;;;9.80;99.90;;;;;;4952082;28;20039;-64
2022/12/30 11:02:52;;;;;;;3.10;1.50;;;10.00;99.90;;;;;;4960400;28;20463;-64
2022/12/30 11:05:32;;;;;;;4.15;1.40;;;10.30;99.90;;;;;;4961041;28;20024;-70
2022/12/30 11:07:59;;;;;;;4.82;1.58;;;10.70;99.90;;;;;;4979112;28;20047;-70
2022/12/30 11:10:25;;;;;;;3.47;1.60;;;10.90;99.90;;;;;;4978469;28;20034;-65
2022/12/30 11:15:50;;;;;;;;;;;11.00;99.90;;;;;;4941441;29;20551;-69
2022/12/30 11:18:16;;;;;;;3.05;1.20;;;11.10;99.90;;;;;;4948873;29;19910;-68
2022/12/30 11:20:42;;;;;;;;;;;11.20;99.90;;;;;;4955837;28;20031;-68
2022/12/30 11:23:40;;;;;;;5.68;1.95;;;11.20;99.90;;;;;;4955367;28;19906;-67
2022/12/30 11:26:17;;;;;;;3.28;1.40;;;11.00;99.90;;;;;;4952003;28;20437;-69
2022/12/30 11:28:53;;;;;;;4.20;1.33;;;11.20;99.90;;;;;;4937523;29;20089;-68
2022/12/30 11:31:19;;;;;;;6.70;1.60;;;11.20;99.90;;;;;;4953927;28;20031;-68
2022/12/30 11:33:49;;;;;;;6.65;1.98;;;11.20;99.90;;;;;;4954270;29;20039;-67
2022/12/30 11:36:27;;;;;;;4.00;1.55;;;11.10;99.90;;;;;;4938143;29;20050;-68
2022/12/30 11:38:54;;;;;;;3.92;1.58;;;11.00;99.90;;;;;;4938140;29;20027;-70
2022/12/30 11:41:28;;;;;;;2.92;1.30;;;10.90;99.90;;;;;;4936737;29;20023;-71
2022/12/30 11:43:59;;;;;;;6.00;1.80;;;10.80;99.90;;;;;;4937891;29;20034;-72
2022/12/30 11:46:30;;;;;;;2.60;1.40;;;10.70;99.90;;;;;;4952229;29;20024;-69
2022/12/30 11:48:59;;;;;;;3.78;1.20;;;10.60;99.90;;;;;;4953726;29;20516;-70
2022/12/30 11:51:43;;;;;;;4.90;1.13;;;10.60;99.90;;;;;;4953047;28;20031;-71
2022/12/30 11:54:11;;;;;;;2.90;1.10;;;10.70;99.90;;;;;;4953337;29;20507;-69
2022/12/30 11:56:59;;;;;;;3.88;1.40;;;10.60;99.90;;;;;;4953156;29;20031;-70
2022/12/30 11:59:26;;;;;;;3.22;1.30;;;10.50;99.90;;;;;;4952988;29;20035;-70
2022/12/30 12:01:56;;;;;;;3.03;1.30;;;10.50;99.90;;;;;;4940786;29;20520;-69
2022/12/30 12:04:40;;;;;;;5.22;1.50;;;10.50;99.90;;;;;;4942105;29;20114;-69
2022/12/30 12:07:21;;;;;;;3.42;1.50;;;10.50;99.90;;;;;;4952950;28;20420;-68
2022/12/30 12:09:58;;;;;;;7.47;2.53;;;10.70;99.90;;;;;;4955271;28;20150;-69
2022/12/30 12:12:27;;;;;;;5.47;1.60;;;11.00;99.90;;;;;;4954317;28;20027;-68
2022/12/30 12:14:56;;;;;;;4.30;1.88;;;11.00;99.90;;;;;;4958215;28;20086;-68
2022/12/30 12:17:55;;;;;;;4.63;1.65;;;10.90;99.90;;;;;;4958339;28;20098;-68
2022/12/30 12:20:31;;;;;;;7.15;2.10;;;10.80;99.90;;;;;;4957288;28;20508;-67
2022/12/30 12:23:05;;;;;;;6.38;2.78;;;10.80;99.90;;;;;;4954675;28;20034;-67
2022/12/30 12:25:40;;;;;;;5.68;2.95;;;10.90;99.90;;;;;;4953605;28;20445;-68
2022/12/30 12:28:10;;;;;;;6.78;2.88;;;10.80;99.90;;;;;;4949086;28;20373;-67
2022/12/30 12:31:20;;;;;;;9.52;3.22;;;10.50;99.90;;;;;;4952275;29;20104;-69
2022/12/30 12:33:58;;;;;;;7.38;3.55;;;10.50;99.90;;;;;;4931176;29;20526;-71
2022/12/30 12:36:45;;;;;;;7.32;3.25;;;10.50;99.90;;;;;;4943017;28;20078;-72
2022/12/30 12:39:19;;;;;;;6.70;3.40;;;10.40;99.90;;;;;;4938564;29;20030;-66
2022/12/30 12:42:03;;;;;;;8.15;3.42;;;10.30;99.90;;;;;;4949539;28;20024;-67
2022/12/30 12:44:56;;;;;;;9.25;4.00;;;10.20;99.90;;;;;;4937795;28;20031;-66
2022/12/30 12:47:42;;;;;;;8.13;3.00;;;10.20;99.90;;;;;;4940444;29;20019;-68
2022/12/30 12:50:38;;;;;;;6.22;2.67;;;10.40;99.90;;;;;;4935911;29;20060;-66
2022/12/30 12:53:20;;;;;;;5.72;2.65;;;10.60;99.90;;;;;;4936080;29;20035;-67
2022/12/30 12:56:11;;;;;;;7.30;2.63;;;10.60;99.90;;;;;;4936449;29;20445;-66
2022/12/30 12:59:01;;;;;;;7.43;3.60;;;10.60;99.90;;;;;;4936446;29;20151;-68
2022/12/30 13:01:32;;;;;;;6.35;2.25;;;10.60;99.90;;;;;;4935955;29;20445;-67
2022/12/30 13:04:39;;;;;;;8.30;3.40;;;10.70;99.90;;;;;;4957948;28;20019;-67
2022/12/30 13:07:22;;;;;;;5.85;2.75;;;10.60;99.90;;;;;;4964745;28;20035;-66
2022/12/30 13:10:04;;;;;;;9.68;2.97;;;10.80;99.90;;;;;;4959508;28;20047;-66
2022/12/30 13:13:01;;;;;;;4.18;2.13;;;10.90;99.90;;;;;;4960594;28;20025;-67
2022/12/30 13:15:39;;;;;;;4.30;2.55;;;10.90;99.90;;;;;;4963805;28;20040;-67
2022/12/30 13:18:11;;;;;;;7.50;2.47;;;10.90;99.90;;;;;;4961243;28;20666;-66
2022/12/30 13:20:46;;;;;;;7.45;2.80;;;10.80;99.90;;;;;;4962624;28;20165;-67
2022/12/30 13:23:14;;;;;;;5.10;2.35;;;10.80;99.90;;;;;;4959466;28;20030;-68
2022/12/30 13:25:46;;;;;;;4.00;2.33;;;10.80;99.90;;;;;;4958020;28;20027;-66
2022/12/30 13:28:20;;;;;;;6.85;2.17;;;10.70;99.90;;;;;;4949876;29;20159;-66
2022/12/30 13:30:55;;;;;;;4.70;1.92;;;10.70;99.90;;;;;;4934800;29;20174;-66
2022/12/30 13:33:45;;;;;;;4.35;2.05;;;10.80;99.90;;;;;;4934781;29;20099;-66
2022/12/30 13:36:48;;;;;;;4.63;2.08;;;10.90;99.90;;;;;;4939473;29;20027;-67
2022/12/30 13:39:39;;;;;;;5.60;2.28;;;10.90;99.90;;;;;;4947183;28;20122;-73
2022/12/30 13:42:24;;;;;;;7.28;2.40;;;10.90;99.90;;;;;;4948346;28;20123;-67
2022/12/30 13:44:50;;;;;;;4.63;2.13;;;10.80;99.90;;;;;;4944427;29;20034;-66
2022/12/30 13:47:38;;;;;;;4.70;2.05;;;10.70;99.90;;;;;;4967552;28;20099;-66
2022/12/30 13:50:19;;;;;;;6.80;2.63;;;10.70;99.90;;;;;;4942170;28;20039;-66
2022/12/30 13:52:54;;;;;;;5.05;3.25;;;10.60;99.90;;;;;;4939245;29;20425;-66
2022/12/30 13:55:21;;;;;;;10.00;4.30;;;10.60;99.90;;;;;;4951454;29;20102;-67
2022/12/30 13:57:51;;;;;;;8.65;4.65;;;10.60;99.90;;;;;;4957738;28;20041;-73
2022/12/30 14:00:32;;;;;;;9.68;4.20;;;10.50;99.90;;;;;;4958205;28;20027;-70
2022/12/30 14:02:59;;;;;;;10.77;5.28;;;10.50;99.90;;;;;;4958126;28;20058;-69
2022/12/30 14:05:37;;;;;;;9.15;4.35;;;10.40;99.90;;;;;;4953794;28;20430;-68
2022/12/30 14:08:24;;;;;;;7.25;3.97;;;10.40;99.90;;;;;;4957134;28;20023;-70
2022/12/30 14:11:09;;;;;;;7.25;3.00;;;10.20;99.90;;;;;;4957370;28;20027;-70
2022/12/30 14:13:37;;;;;;;11.57;3.17;;;10.00;99.90;;;;;;4956375;28;20042;-70
2022/12/30 14:16:23;;;;;;;7.20;3.75;;;10.00;99.90;;;;;;4957868;28;20053;-72
2022/12/30 14:18:52;;;;;;;11.45;3.33;;;9.90;99.90;;;;;;4956756;29;20098;-71
2022/12/30 14:21:21;;;;;;;5.93;3.03;;;10.00;99.90;;;;;;4957821;28;20020;-71
2022/12/30 14:23:57;;;;;;;6.57;3.30;;;10.00;99.90;;;;;;4956263;29;20551;-71
2022/12/30 14:26:26;;;;;;;7.50;3.60;;;9.90;99.90;;;;;;4957481;28;20495;-68
2022/12/30 14:28:55;;;;;;;8.38;2.90;;;9.80;99.90;;;;;;4956746;28;20031;-70
2022/12/30 14:31:25;;;;;;;11.13;3.60;;;9.70;99.90;;;;;;4957177;28;20023;-70
2022/12/30 14:33:53;;;;;;;11.77;3.03;;;9.60;99.90;;;;;;4957326;28;20041;-69
2022/12/30 14:36:21;;;;;;;6.93;2.80;;;9.70;99.90;;;;;;4960164;28;20027;-69
2022/12/30 14:38:50;;;;;;;9.07;2.80;;;9.80;99.90;;;;;;4976489;28;20023;-71
2022/12/30 14:41:17;;;;;;;5.35;2.70;;;9.90;99.90;;;;;;4976397;28;20050;-71
2022/12/30 14:43:52;;;;;;;5.32;2.30;;;9.80;99.90;;;;;;4978447;28;20027;-71
2022/12/30 14:46:43;;;;;;;7.95;2.45;;;9.70;99.90;;;;;;4978092;28;20106;-68
2022/12/30 14:49:11;;;;;;;3.95;1.98;;;9.80;99.90;;;;;;4951447;29;20126;-70
2022/12/30 14:51:40;;;;;;;7.53;2.60;;;9.70;99.90;;;;;;4970112;28;20038;-70
2022/12/30 14:54:19;;;;;;;8.85;2.78;;;9.70;99.90;;;;;;4958519;29;20034;-69
2022/12/30 14:56:54;;;;;;;9.75;4.07;;;9.60;99.90;;;;;;4959657;28;20038;-66
2022/12/30 14:59:23;;;;;;;10.82;3.38;;;9.60;99.90;;;;;;4961030;28;20032;-66
2022/12/30 15:02:13;;;;;;;6.10;2.95;;;9.70;99.90;;;;;;4955524;29;20031;-67
2022/12/30 15:04:39;;;;;;;8.10;2.53;;;9.70;99.90;;;;;;4948131;29;20023;-67
2022/12/30 15:07:06;;;;;;;9.47;3.97;;;9.60;99.90;;;;;;4968609;28;20078;-68
2022/12/30 15:09:31;;;;;;;;;;;9.60;99.90;;;;;;4977723;28;20035;-68
2022/12/30 15:12:01;;;;;;;9.50;4.25;;;9.60;99.90;;;;;;4976248;28;20022;-65
2022/12/30 15:14:28;;;;;;;8.52;3.38;;;9.80;99.90;;;;;;4940349;29;20036;-66
2022/12/30 15:17:21;;;;;;;6.32;2.80;;;9.70;99.90;;;;;;4941534;29;20381;-66
2022/12/30 15:19:47;;;;;;;12.23;3.95;;;9.70;99.90;;;;;;4955058;29;20027;-65
2022/12/30 15:22:14;;;;;;;7.75;3.88;;;9.60;99.90;;;;;;4940462;29;20028;-66
2022/12/30 15:24:42;;;;;;;8.68;4.05;;;9.50;99.90;;;;;;4939719;29;20398;-65
2022/12/30 15:27:21;;;;;;;13.43;6.53;;;9.50;99.90;;;;;;4937243;29;20098;-64
2022/12/30 15:29:48;;;;;;;11.75;5.07;;;9.50;99.90;;;;;;4936543;29;20055;-64
2022/12/30 15:32:27;;;;;;;10.90;4.03;;;9.70;99.90;;;;;;4935794;29;20035;-66
2022/12/30 15:34:55;;;;;;;9.20;3.40;;;9.70;99.90;;;;;;4938298;29;20034;-65
2022/12/30 15:37:27;;;;;;;8.70;4.25;;;9.60;99.90;;;;;;4949482;28;20027;-65
2022/12/30 15:39:56;;;;;;;5.72;3.28;;;9.60;99.90;;;;;;4950765;28;20024;-65
2022/12/30 15:42:29;;;;;;;7.47;3.30;;;9.70;99.90;;;;;;4954060;29;20142;-65
2022/12/30 15:44:56;;;;;;;7.93;2.90;;;9.70;99.90;;;;;;4947850;29;20023;-65
2022/12/30 15:47:26;;;;;;;6.65;2.92;;;9.80;99.90;;;;;;4945190;29;20451;-65
2022/12/30 15:49:54;;;;;;;8.23;3.40;;;9.70;99.90;;;;;;4949957;29;20044;-64
2022/12/30 15:52:21;;;;;;;9.75;3.30;;;9.70;99.90;;;;;;4948057;28;20448;-65
2022/12/30 15:54:50;;;;;;;;;;;9.70;99.90;;;;;;4956337;28;20034;-65
2022/12/30 15:57:36;;;;;;;6.95;3.20;;;9.60;99.90;;;;;;4955890;29;19906;-66
2022/12/30 16:00:17;;;;;;;7.90;3.40;;;9.50;99.90;;;;;;4936602;29;20059;-67
2022/12/30 16:02:43;;;;;;;7.63;3.60;;;9.50;99.90;;;;;;4937070;29;20040;-66
2022/12/30 16:05:20;;;;;;;5.72;3.35;;;9.50;99.90;;;;;;4936667;29;20035;-67
2022/12/30 16:07:46;;;;;;;6.68;3.42;;;9.50;99.90;;;;;;4953160;29;20023;-67
2022/12/30 16:10:11;;;;;;;6.82;3.38;;;9.70;99.90;;;;;;4955309;28;20050;-67
2022/12/30 16:12:50;;;;;;;8.93;4.10;;;9.60;99.90;;;;;;4955650;28;20031;-66
2022/12/30 16:15:20;;;;;;;6.72;3.63;;;9.70;99.90;;;;;;4955542;29;20484;-67
2022/12/30 16:17:45;;;;;;;6.35;3.47;;;9.70;99.90;;;;;;4951357;28;20472;-68
2022/12/30 16:20:26;;;;;;;6.60;3.43;;;9.60;99.90;;;;;;4935327;29;20036;-72
2022/12/30 16:22:57;;;;;;;6.93;3.88;;;9.80;99.90;;;;;;4936201;29;20051;-73
2022/12/30 16:25:37;;;;;;;5.57;3.50;;;9.90;99.90;;;;;;4936320;29;20489;-71
2022/12/30 16:28:24;;;;;;;10.75;4.68;;;9.90;99.90;;;;;;4963464;28;20032;-74
2022/12/30 16:30:50;;;;;;;7.05;2.97;;;9.90;99.90;;;;;;4955440;28;20421;-72
2022/12/30 16:33:17;;;;;;;6.07;3.27;;;9.80;99.90;;;;;;4969969;28;20128;-72
2022/12/30 16:35:47;;;;;;;8.23;3.50;;;9.90;99.90;;;;;;4962545;28;20031;-73
2022/12/30 16:38:13;;;;;;;7.60;4.15;;;9.80;99.90;;;;;;4973479;28;20031;-73
2022/12/30 16:40:41;;;;;;;9.10;4.05;;;9.80;99.90;;;;;;4966193;28;20110;-67
2022/12/30 16:43:08;;;;;;;7.15;3.40;;;9.80;99.90;;;;;;4943626;29;20027;-67
2022/12/30 16:45:36;;;;;;;6.88;3.92;;;9.70;99.90;;;;;;4953838;28;20142;-69
2022/12/30 16:48:02;;;;;;;7.43;3.97;;;9.70;99.90;;;;;;4944605;29;20028;-70
2022/12/30 16:50:28;;;;;;;7.60;4.17;;;9.70;99.90;;;;;;4936132;29;20031;-71
2022/12/30 16:52:56;;;;;;;7.83;4.07;;;9.80;99.90;;;;;;4935858;29;20032;-71
2022/12/30 16:55:22;;;;;;;7.20;4.40;;;9.70;99.90;;;;;;4936155;29;20031;-70
2022/12/30 16:57:48;;;;;;;6.95;4.03;;;9.80;99.90;;;;;;4947204;28;20454;-70
2022/12/30 17:00:20;;;;;;;5.63;3.40;;;9.80;99.90;;;;;;4972922;28;20205;-71
2022/12/30 17:02:45;;;;;;;6.60;3.15;;;9.80;99.90;;;;;;4965352;28;20046;-74
2022/12/30 17:05:16;;;;;;;7.80;3.50;;;9.90;99.90;;;;;;4956996;28;20484;-69
2022/12/30 17:07:42;;;;;;;6.32;4.22;;;10.00;99.90;;;;;;4972600;28;20053;-71
2022/12/30 17:13:00;;;;;;;4.60;2.78;;;10.10;99.90;;;;;;4974917;28;20535;-68
2022/12/30 17:15:26;;;;;;;5.68;2.42;;;10.20;99.90;;;;;;4974156;28;20034;-69
2022/12/30 17:17:52;;;;;;;4.90;2.90;;;10.30;99.90;;;;;;4956701;28;20035;-69
2022/12/30 17:20:17;;;;;;;4.23;2.57;;;10.40;99.90;;;;;;4939799;28;20035;-70
2022/12/30 17:22:43;;;;;;;4.47;2.10;;;10.50;99.90;;;;;;4954079;28;20019;-70
2022/12/30 17:25:15;;;;;;;1.93;1.50;;;10.60;99.90;;;;;;4940846;29;20032;-75
2022/12/30 17:27:41;;;;;;;2.85;1.45;;;10.70;99.90;;;;;;4940655;29;20024;-70
2022/12/30 17:30:11;;;;;;;4.78;1.80;;;10.80;99.90;;;;;;4958732;28;20443;-69
2022/12/30 17:32:41;;;;;;;3.75;1.50;;;10.90;99.90;;;;;;4958623;28;20125;-73
2022/12/30 17:35:30;;;;;;;8.27;2.58;;;11.00;99.90;;;;;;4959548;28;20067;-68
2022/12/30 17:37:56;;;;;;;1.52;1.33;;;11.00;99.90;;;;;;4977470;28;20037;-70
2022/12/30 17:40:22;;;;;;;4.17;1.33;;;11.00;99.90;;;;;;4964976;28;20516;-70
2022/12/30 17:42:47;;;;;;;1.50;1.00;;;11.00;99.90;;;;;;4972859;28;20441;-70
2022/12/30 17:45:14;;;;;;;2.83;1.20;;;11.10;99.90;;;;;;4958493;28;20094;-70
2022/12/30 17:47:40;;;;;;;7.22;4.22;;;11.10;99.90;;;;;;4958543;28;20114;-71
2022/12/30 17:50:07;;;;;;;2.33;1.30;;;11.20;99.90;;;;;;4958554;28;20119;-71
2022/12/30 17:52:33;;;;;;;3.03;1.67;;;11.20;99.90;;;;;;4956821;28;20263;-70
2022/12/30 17:54:59;;;;;;;4.28;1.85;;;11.20;99.90;;;;;;4958392;28;20388;-70
2022/12/30 17:57:24;;;;;;;2.50;1.25;;;11.20;99.90;;;;;;4958480;28;20035;-70
2022/12/30 17:59:50;;;;;;;1.80;1.30;;;11.30;99.90;;;;;;4969861;28;20042;-70
2022/12/30 18:02:15;;;;;;;2.90;1.73;;;11.30;99.90;;;;;;4939308;29;20118;-71
2022/12/30 18:04:41;;;;;;;2.10;1.10;;;11.30;99.90;;;;;;4939952;29;20159;-70
2022/12/30 18:07:07;;;;;;;3.03;1.50;;;11.30;99.90;;;;;;4944305;28;20031;-72
2022/12/30 18:09:37;;;;;;;2.30;1.27;;;11.40;99.90;;;;;;4939540;29;20114;-73
2022/12/30 18:12:12;;;;;;;3.50;1.35;;;11.50;99.90;;;;;;4941706;29;20030;-73
2022/12/30 18:14:38;;;;;;;1.90;1.17;;;11.50;99.90;;;;;;4941444;29;20028;-73
2022/12/30 18:17:05;;;;;;;1.33;0.90;;;11.60;99.90;;;;;;4944218;29;20107;-74
2022/12/30 18:19:30;;;;;;;2.00;1.10;;;11.70;99.90;;;;;;4946152;29;20116;-74
2022/12/30 18:21:56;;;;;;;3.50;1.70;;;11.80;99.90;;;;;;4948767;29;20020;-73
2022/12/30 18:24:21;;;;;;;1.83;1.10;;;11.80;99.90;;;;;;4947438;29;20270;-73